Terminal Aerodrome Forecast
Issued by NWS Billings, MT

Home | Current Version | Previous Version | Text Only | Print | Product List | Glossary Off
Versions: 1 2 3 4 5 6 7 8 9 10 11 12 13 14 15 16 17 18 19 20 21 22 23

000
FTUS45 KBYZ 182334
TAFMLS
TAF
KMLS 182334Z 1900/1924 25011KT P6SM SCT080 BKN120
     FM190400 27009KT P6SM VCSH BKN100
     FM191400 31015G24KT P6SM SCT080=

USA.gov is the U.S. government's official web portal to all federal, state and local government web resources and services.